Time;durP1;ratioP1;P1;durP2;ratioP2;P2;SDS_P1;SDS_P2;PMS_P1;PMS_P2;Temp;Humidity;BMP_temperature;BMP_pressure;BME280_temperature;BME280_humidity;BME280_pressure;Samples;Min_cycle;Max_cycle;Signal;HPM_P1;HPM_P2
2022/07/16 00:03:12;;;;;;;2.40;0.90;;;;;;;;;;5015926;28;20574;-70
2022/07/16 00:05:40;;;;;;;2.43;0.97;;;;;;;;;;5013639;28;20455;-70
2022/07/16 00:08:10;;;;;;;2.67;1.43;;;;;;;;;;5013668;28;20565;-70
2022/07/16 00:10:38;;;;;;;2.07;0.90;;;;;;;;;;5013784;28;20549;-70
2022/07/16 00:13:06;;;;;;;2.00;0.93;;;;;;;;;;5014536;28;20736;-70
2022/07/16 00:15:34;;;;;;;3.73;1.07;;;;;;;;;;5014825;28;20880;-70
2022/07/16 00:20:49;;;;;;;2.10;1.00;;;;;;;;;;5014993;28;20722;-69
2022/07/16 00:23:27;;;;;;;2.30;0.90;;;;;;;;;;5015075;28;20455;-70
2022/07/16 00:25:54;;;;;;;2.10;0.93;;;;;;;;;;5015190;28;20451;-69
2022/07/16 00:28:22;;;;;;;3.80;0.90;;;;;;;;;;5014636;28;20491;-69
2022/07/16 00:30:53;;;;;;;2.70;0.90;;;;;;;;;;5015347;28;20455;-69
2022/07/16 00:33:21;;;;;;;2.17;1.30;;;;;;;;;;5014561;28;20519;-69
2022/07/16 00:35:49;;;;;;;1.90;0.73;;;;;;;;;;5014824;28;20447;-69
2022/07/16 00:38:17;;;;;;;3.00;0.93;;;;;;;;;;5014916;28;20451;-69
2022/07/16 00:40:49;;;;;;;1.93;0.83;;;;;;;;;;5013920;28;20447;-71
2022/07/16 00:43:17;;;;;;;2.53;0.80;;;;;;;;;;5014870;28;20998;-70
2022/07/16 00:45:48;;;;;;;4.50;1.10;;;;;;;;;;5014399;28;20447;-70
2022/07/16 00:48:16;;;;;;;3.77;0.80;;;;;;;;;;5013882;28;20733;-70
2022/07/16 00:50:43;;;;;;;3.23;0.80;;;;;;;;;;5013604;28;20459;-69
2022/07/16 00:53:12;;;;;;;1.70;0.70;;;;;;;;;;5014497;28;20456;-69
2022/07/16 00:55:40;;;;;;;2.30;1.13;;;;;;;;;;5013655;28;20514;-69
2022/07/16 00:58:10;;;;;;;4.03;1.20;;;;;;;;;;5013609;28;20452;-70
2022/07/16 01:00:38;;;;;;;4.37;0.97;;;;;;;;;;5013516;28;20455;-70
2022/07/16 01:03:06;;;;;;;3.63;1.20;;;;;;;;;;5013118;28;20451;-70
2022/07/16 01:05:35;;;;;;;2.23;1.03;;;;;;;;;;5013221;28;20455;-70
2022/07/16 01:08:06;;;;;;;1.80;1.00;;;;;;;;;;5013376;28;20490;-70
2022/07/16 01:10:35;;;;;;;2.30;0.90;;;;;;;;;;5013280;28;20554;-70
2022/07/16 01:13:04;;;;;;;4.90;0.90;;;;;;;;;;5013041;28;20455;-70
2022/07/16 01:15:33;;;;;;;1.90;0.80;;;;;;;;;;5013543;28;20451;-70
2022/07/16 01:18:01;;;;;;;1.90;0.70;;;;;;;;;;5012679;28;20498;-70
2022/07/16 01:20:29;;;;;;;4.17;1.07;;;;;;;;;;5013566;28;20458;-70
2022/07/16 01:22:57;;;;;;;4.57;1.10;;;;;;;;;;5013331;28;20451;-69
2022/07/16 01:25:52;;;;;;;3.70;1.77;;;;;;;;;;5012490;28;20591;-70
2022/07/16 01:28:22;;;;;;;6.63;1.43;;;;;;;;;;5012965;28;20574;-71
2022/07/16 01:30:50;;;;;;;3.10;1.03;;;;;;;;;;5012782;28;20443;-69
2022/07/16 01:33:22;;;;;;;5.90;2.00;;;;;;;;;;5013099;28;20543;-69
2022/07/16 01:35:50;;;;;;;7.50;1.73;;;;;;;;;;5013214;28;20477;-70
2022/07/16 01:38:18;;;;;;;4.03;1.70;;;;;;;;;;5013007;28;20447;-70
2022/07/16 01:40:46;;;;;;;3.13;1.60;;;;;;;;;;5012749;28;20618;-70
2022/07/16 01:43:15;;;;;;;3.80;1.80;;;;;;;;;;5013622;28;20459;-70
2022/07/16 01:45:44;;;;;;;2.80;1.53;;;;;;;;;;5013381;28;20494;-70
2022/07/16 01:48:13;;;;;;;4.30;1.70;;;;;;;;;;5013764;28;20487;-70
2022/07/16 01:50:42;;;;;;;2.53;1.40;;;;;;;;;;5013502;28;20459;-70
2022/07/16 01:53:10;;;;;;;5.50;2.07;;;;;;;;;;5013551;28;20821;-70
2022/07/16 01:55:38;;;;;;;3.00;1.73;;;;;;;;;;5014073;28;20518;-70
2022/07/16 01:58:06;;;;;;;5.53;2.73;;;;;;;;;;5014103;28;20546;-70
2022/07/16 02:00:34;;;;;;;7.80;2.20;;;;;;;;;;5013913;28;20451;-70
2022/07/16 02:03:04;;;;;;;5.70;2.70;;;;;;;;;;5013294;28;20440;-70
2022/07/16 02:05:34;;;;;;;3.83;2.37;;;;;;;;;;5013280;28;20542;-70
2022/07/16 02:08:02;;;;;;;3.90;2.37;;;;;;;;;;5012936;28;20466;-70
2022/07/16 02:10:30;;;;;;;5.50;2.17;;;;;;;;;;5013579;28;20561;-70
2022/07/16 02:12:58;;;;;;;3.90;1.87;;;;;;;;;;5013076;28;20466;-70
2022/07/16 02:15:26;;;;;;;5.47;2.57;;;;;;;;;;5013980;28;20479;-70
2022/07/16 02:17:54;;;;;;;5.30;1.90;;;;;;;;;;5012620;28;20542;-70
2022/07/16 02:20:24;;;;;;;3.50;2.00;;;;;;;;;;5013868;28;20890;-70
2022/07/16 02:22:52;;;;;;;4.07;1.90;;;;;;;;;;5013082;28;20447;-70
2022/07/16 02:25:23;;;;;;;3.50;1.93;;;;;;;;;;5012755;28;20478;-70
2022/07/16 02:28:07;;;;;;;4.00;1.90;;;;;;;;;;5011946;28;20725;-70
2022/07/16 02:30:35;;;;;;;6.93;3.00;;;;;;;;;;5023019;28;20899;-69
2022/07/16 02:33:05;;;;;;;5.23;2.10;;;;;;;;;;5026190;28;21113;-70
2022/07/16 02:35:35;;;;;;;3.10;1.87;;;;;;;;;;5036916;28;20454;-70
2022/07/16 02:38:04;;;;;;;5.03;1.83;;;;;;;;;;5036211;28;20457;-70
2022/07/16 02:40:34;;;;;;;6.00;3.23;;;;;;;;;;5030434;28;20457;-70
2022/07/16 02:43:03;;;;;;;5.37;2.87;;;;;;;;;;5016307;28;20732;-70
2022/07/16 02:45:31;;;;;;;2.70;1.87;;;;;;;;;;5015872;28;20780;-70
2022/07/16 02:47:59;;;;;;;5.80;2.00;;;;;;;;;;5016141;28;20937;-70
2022/07/16 02:50:27;;;;;;;5.93;2.10;;;;;;;;;;5017788;28;20917;-70
2022/07/16 02:52:57;;;;;;;3.70;1.90;;;;;;;;;;5016767;28;20490;-70
2022/07/16 02:55:26;;;;;;;5.40;2.00;;;;;;;;;;5018062;28;20509;-70
2022/07/16 02:57:54;;;;;;;5.00;2.17;;;;;;;;;;5016614;28;20451;-70
2022/07/16 03:00:22;;;;;;;3.97;2.07;;;;;;;;;;5016818;28;20456;-70
2022/07/16 03:02:51;;;;;;;5.77;2.50;;;;;;;;;;5016371;28;20526;-70
2022/07/16 03:05:19;;;;;;;4.20;2.20;;;;;;;;;;5017687;28;20459;-70
2022/07/16 03:07:57;;;;;;;2.80;2.10;;;;;;;;;;5018493;28;20451;-70
2022/07/16 03:10:26;;;;;;;3.93;2.97;;;;;;;;;;5016361;28;20487;-69
2022/07/16 03:12:55;;;;;;;5.43;2.43;;;;;;;;;;5017086;28;20554;-70
2022/07/16 03:15:24;;;;;;;2.70;2.00;;;;;;;;;;5017554;28;20569;-70
2022/07/16 03:17:51;;;;;;;6.03;2.37;;;;;;;;;;5016012;28;20447;-69
2022/07/16 03:20:19;;;;;;;4.83;2.70;;;;;;;;;;5019821;28;20468;-69
2022/07/16 03:22:48;;;;;;;4.63;3.17;;;;;;;;;;5024364;28;20467;-69
2022/07/16 03:25:16;;;;;;;6.00;2.80;;;;;;;;;;5031879;28;20462;-69
2022/07/16 03:27:49;;;;;;;5.40;2.60;;;;;;;;;;5016979;28;20696;-69
2022/07/16 03:30:17;;;;;;;4.63;3.23;;;;;;;;;;5017710;28;20502;-69
2022/07/16 03:32:45;;;;;;;5.23;2.93;;;;;;;;;;5016482;28;20546;-69
2022/07/16 03:35:14;;;;;;;3.13;2.63;;;;;;;;;;5017441;28;20459;-69
2022/07/16 03:40:30;;;;;;;3.90;2.60;;;;;;;;;;5014919;28;20474;-70
2022/07/16 03:42:59;;;;;;;3.67;2.83;;;;;;;;;;5019119;28;20565;-70
2022/07/16 03:45:27;;;;;;;5.93;3.20;;;;;;;;;;5035537;28;20454;-70
2022/07/16 03:47:55;;;;;;;6.13;2.73;;;;;;;;;;5034068;28;20458;-68
2022/07/16 03:50:23;;;;;;;5.53;2.77;;;;;;;;;;5035428;28;20556;-69
2022/07/16 03:52:54;;;;;;;5.33;3.23;;;;;;;;;;5034748;28;20450;-69
2022/07/16 03:55:22;;;;;;;8.03;2.90;;;;;;;;;;5034720;28;20462;-69
2022/07/16 03:57:51;;;;;;;2.80;2.10;;;;;;;;;;5034778;28;20450;-69
2022/07/16 04:00:23;;;;;;;3.27;2.03;;;;;;;;;;5035556;28;20456;-69
2022/07/16 04:02:52;;;;;;;3.97;2.00;;;;;;;;;;5028358;28;20550;-69
2022/07/16 04:05:20;;;;;;;3.37;2.27;;;;;;;;;;5016515;28;20459;-69
2022/07/16 04:07:48;;;;;;;4.60;1.70;;;;;;;;;;5014806;28;20521;-69
2022/07/16 04:10:15;;;;;;;4.60;2.40;;;;;;;;;;5015315;28;20487;-69
2022/07/16 04:12:44;;;;;;;4.40;1.80;;;;;;;;;;5015387;28;20452;-69
2022/07/16 04:15:12;;;;;;;5.40;2.33;;;;;;;;;;5016137;28;20725;-69
2022/07/16 04:17:41;;;;;;;2.57;1.50;;;;;;;;;;5015813;28;20491;-69
2022/07/16 04:20:12;;;;;;;3.60;1.67;;;;;;;;;;5015244;28;20973;-69
2022/07/16 04:22:41;;;;;;;2.50;1.70;;;;;;;;;;5015980;28;20559;-69
2022/07/16 04:25:09;;;;;;;3.90;1.60;;;;;;;;;;5015004;28;20616;-69
2022/07/16 04:27:37;;;;;;;4.80;2.10;;;;;;;;;;5015454;28;20461;-69
2022/07/16 04:30:05;;;;;;;3.20;1.93;;;;;;;;;;5014014;28;20490;-69
2022/07/16 04:32:33;;;;;;;3.40;2.00;;;;;;;;;;5015804;28;20486;-69
2022/07/16 04:35:03;;;;;;;2.33;1.37;;;;;;;;;;5014498;28;20470;-70
2022/07/16 04:37:34;;;;;;;3.20;1.33;;;;;;;;;;5015433;28;20466;-69
2022/07/16 04:40:02;;;;;;;3.90;1.40;;;;;;;;;;5014880;28;20466;-70
2022/07/16 04:42:30;;;;;;;2.80;1.53;;;;;;;;;;5018358;28;20758;-70
2022/07/16 04:44:58;;;;;;;2.90;1.90;;;;;;;;;;5025830;28;20473;-70
2022/07/16 04:47:26;;;;;;;5.43;1.70;;;;;;;;;;5034352;28;20450;-70
2022/07/16 04:49:54;;;;;;;5.20;1.70;;;;;;;;;;5033812;28;20501;-70
2022/07/16 04:52:27;;;;;;;2.60;1.70;;;;;;;;;;5027394;28;20475;-70
2022/07/16 04:54:55;;;;;;;2.00;1.30;;;;;;;;;;5014103;28;20471;-70
2022/07/16 04:57:26;;;;;;;2.33;1.30;;;;;;;;;;5012970;28;20479;-70
2022/07/16 04:59:57;;;;;;;3.10;1.47;;;;;;;;;;5013128;28;20455;-70
2022/07/16 05:05:10;;;;;;;2.77;1.20;;;;;;;;;;5011713;28;20435;-70
2022/07/16 05:07:40;;;;;;;2.70;1.60;;;;;;;;;;5013806;28;20821;-70
2022/07/16 05:10:11;;;;;;;3.40;1.67;;;;;;;;;;5012006;28;20735;-70
2022/07/16 05:12:39;;;;;;;6.60;1.80;;;;;;;;;;5012519;28;20481;-70
2022/07/16 05:15:07;;;;;;;2.50;1.40;;;;;;;;;;5012076;28;20853;-70
2022/07/16 05:17:35;;;;;;;2.03;1.27;;;;;;;;;;5012178;28;20462;-70
2022/07/16 05:20:03;;;;;;;3.00;1.70;;;;;;;;;;5012131;28;20495;-70
2022/07/16 05:22:32;;;;;;;3.63;1.33;;;;;;;;;;5011706;28;20622;-70
2022/07/16 05:25:01;;;;;;;5.37;1.33;;;;;;;;;;5011591;28;20466;-70
2022/07/16 05:27:29;;;;;;;3.63;1.60;;;;;;;;;;5012735;28;20754;-70
2022/07/16 05:29:57;;;;;;;3.80;1.40;;;;;;;;;;5012243;28;20989;-70
2022/07/16 05:32:25;;;;;;;4.20;1.20;;;;;;;;;;5012605;28;20443;-70
2022/07/16 05:34:53;;;;;;;2.87;1.20;;;;;;;;;;5011338;28;20759;-69
2022/07/16 05:37:21;;;;;;;3.70;1.30;;;;;;;;;;5012711;28;20462;-70
2022/07/16 05:39:49;;;;;;;2.40;1.20;;;;;;;;;;5013285;28;20727;-70
2022/07/16 05:42:19;;;;;;;5.57;1.63;;;;;;;;;;5013211;28;20506;-70
2022/07/16 05:44:47;;;;;;;2.77;1.43;;;;;;;;;;5012219;28;20529;-70
2022/07/16 05:47:17;;;;;;;2.23;1.20;;;;;;;;;;5013234;28;20963;-70
2022/07/16 05:49:45;;;;;;;4.07;1.57;;;;;;;;;;5013790;28;20498;-70
2022/07/16 05:52:13;;;;;;;3.17;1.50;;;;;;;;;;5021142;28;20536;-70
2022/07/16 05:54:45;;;;;;;4.27;1.83;;;;;;;;;;5020703;28;20446;-70
2022/07/16 05:57:16;;;;;;;3.47;1.50;;;;;;;;;;5031201;28;20557;-70
2022/07/16 05:59:47;;;;;;;5.10;1.27;;;;;;;;;;5019383;28;20840;-70
2022/07/16 06:02:25;;;;;;;;;;;;;;;;;;;;;
2022/07/16 06:04:53;;;;;;;5.27;1.97;;;;;;;;;;5030221;28;20766;-70
2022/07/16 06:07:37;;;;;;;;;;;;;;;;;;;;;
2022/07/16 06:10:09;;;;;;;6.67;3.20;;;;;;;;;;5033561;28;20890;-70
2022/07/16 06:12:39;;;;;;;2.00;1.37;;;;;;;;;;5033071;28;20450;-69
2022/07/16 06:15:11;;;;;;;2.17;1.23;;;;;;;;;;5033706;28;20488;-70
2022/07/16 06:17:39;;;;;;;5.57;1.60;;;;;;;;;;5032812;28;20486;-70
2022/07/16 06:20:08;;;;;;;3.33;1.50;;;;;;;;;;5033483;28;20493;-70
2022/07/16 06:22:37;;;;;;;3.10;1.50;;;;;;;;;;5025014;28;20508;-69
2022/07/16 06:25:07;;;;;;;3.17;1.03;;;;;;;;;;5023288;28;20450;-70
2022/07/16 06:27:35;;;;;;;6.10;1.90;;;;;;;;;;5020015;28;20481;-70
2022/07/16 06:30:05;;;;;;;3.43;1.50;;;;;;;;;;5025229;28;20505;-70
2022/07/16 06:32:35;;;;;;;4.30;1.87;;;;;;;;;;5022512;28;20556;-69
2022/07/16 06:35:03;;;;;;;3.80;1.60;;;;;;;;;;5024107;28;20542;-70
2022/07/16 06:37:33;;;;;;;3.13;1.80;;;;;;;;;;5023227;28;20474;-69
2022/07/16 06:40:01;;;;;;;2.97;1.57;;;;;;;;;;5024853;28;20445;-69
2022/07/16 06:42:29;;;;;;;5.53;2.17;;;;;;;;;;5023980;28;20462;-69
2022/07/16 06:44:57;;;;;;;3.67;1.70;;;;;;;;;;5017199;28;20497;-69
2022/07/16 06:47:26;;;;;;;3.10;1.40;;;;;;;;;;5023643;28;20540;-69
2022/07/16 06:49:56;;;;;;;4.10;1.77;;;;;;;;;;5020107;28;20478;-70
2022/07/16 06:52:26;;;;;;;6.43;1.60;;;;;;;;;;5018011;28;20473;-71
2022/07/16 06:55:00;;;;;;;2.53;1.53;;;;;;;;;;5014872;28;20482;-71
2022/07/16 06:57:30;;;;;;;4.53;1.53;;;;;;;;;;5021056;28;20555;-71
2022/07/16 06:59:58;;;;;;;5.93;1.40;;;;;;;;;;5018594;28;20466;-70
2022/07/16 07:02:26;;;;;;;3.90;1.40;;;;;;;;;;5033711;28;20461;-69
2022/07/16 07:04:56;;;;;;;3.70;1.43;;;;;;;;;;5032516;28;20824;-69
2022/07/16 07:07:25;;;;;;;4.30;1.43;;;;;;;;;;5013734;28;20557;-69
2022/07/16 07:09:55;;;;;;;5.90;1.50;;;;;;;;;;5014028;28;20483;-69
2022/07/16 07:12:23;;;;;;;5.57;1.10;;;;;;;;;;5014264;28;20521;-69
2022/07/16 07:14:51;;;;;;;3.03;1.00;;;;;;;;;;5030727;28;20482;-69
2022/07/16 07:17:19;;;;;;;3.73;1.17;;;;;;;;;;5023044;28;20868;-69
2022/07/16 07:19:47;;;;;;;3.77;0.93;;;;;;;;;;5032529;28;20446;-69
2022/07/16 07:22:17;;;;;;;5.70;1.10;;;;;;;;;;5017108;28;20551;-70
2022/07/16 07:24:45;;;;;;;2.00;0.83;;;;;;;;;;5013812;28;20455;-69
2022/07/16 07:27:14;;;;;;;2.17;1.00;;;;;;;;;;5014124;28;20459;-69
2022/07/16 07:29:42;;;;;;;5.63;0.90;;;;;;;;;;5021967;28;20541;-69
2022/07/16 07:32:11;;;;;;;7.70;1.20;;;;;;;;;;5024769;28;20782;-69
2022/07/16 07:35:00;;;;;;;2.87;1.30;;;;;;;;;;5014928;28;20556;-69
2022/07/16 07:37:33;;;;;;;4.80;0.70;;;;;;;;;;5015698;28;20514;-69
2022/07/16 07:40:09;;;;;;;6.67;0.90;;;;;;;;;;5014222;28;20457;-69
2022/07/16 07:42:38;;;;;;;5.67;0.90;;;;;;;;;;5020209;28;20749;-70
2022/07/16 07:45:07;;;;;;;3.00;0.90;;;;;;;;;;5021465;28;20477;-69
2022/07/16 07:47:55;;;;;;;4.03;1.10;;;;;;;;;;5026482;28;20490;-70
2022/07/16 07:50:25;;;;;;;3.97;1.00;;;;;;;;;;5007335;28;20574;-70
2022/07/16 07:52:59;;;;;;;3.63;1.00;;;;;;;;;;5019350;28;20469;-69
2022/07/16 07:55:30;;;;;;;6.13;1.17;;;;;;;;;;5014480;28;20465;-69
2022/07/16 07:58:00;;;;;;;3.97;1.00;;;;;;;;;;5029071;28;20470;-70
2022/07/16 08:00:29;;;;;;;2.73;1.40;;;;;;;;;;5020002;28;20446;-70
2022/07/16 08:02:58;;;;;;;2.97;0.80;;;;;;;;;;5029585;28;20482;-68
2022/07/16 08:05:27;;;;;;;5.03;1.07;;;;;;;;;;5020412;28;20462;-69
2022/07/16 08:07:58;;;;;;;6.90;1.50;;;;;;;;;;5020192;28;20443;-69
2022/07/16 08:10:28;;;;;;;1.90;0.80;;;;;;;;;;5016277;28;21083;-68
2022/07/16 08:13:02;;;;;;;3.57;0.73;;;;;;;;;;5021589;28;20527;-69
2022/07/16 08:15:33;;;;;;;3.57;1.10;;;;;;;;;;5016602;28;20559;-69
2022/07/16 08:18:01;;;;;;;4.03;1.33;;;;;;;;;;5013704;28;20447;-69
2022/07/16 08:20:45;;;;;;;6.50;1.40;;;;;;;;;;5018390;28;20484;-69
2022/07/16 08:25:44;;;;;;;2.73;0.80;;;;;;;;;;5024429;28;20872;-70
2022/07/16 08:26:09;;;;;;;3.07;1.20;;;;;;;;;;5013339;28;20771;-70
2022/07/16 08:28:41;;;;;;;5.83;1.57;;;;;;;;;;5012243;28;20458;-70
2022/07/16 08:31:10;;;;;;;3.50;1.00;;;;;;;;;;5012229;28;20487;-70
2022/07/16 08:33:45;;;;;;;5.77;1.00;;;;;;;;;;5013035;28;20459;-68
2022/07/16 08:36:16;;;;;;;5.13;0.90;;;;;;;;;;5032932;28;20863;-71
2022/07/16 08:38:45;;;;;;;5.00;1.57;;;;;;;;;;5020402;28;20466;-69
2022/07/16 08:41:18;;;;;;;8.60;1.33;;;;;;;;;;5026477;28;20855;-71
2022/07/16 08:43:47;;;;;;;4.23;1.00;;;;;;;;;;5017710;28;20464;-70
2022/07/16 08:46:26;;;;;;;11.23;1.60;;;;;;;;;;5011724;28;20842;-70
2022/07/16 08:49:01;;;;;;;3.27;1.13;;;;;;;;;;5011813;28;20466;-70
2022/07/16 08:51:33;;;;;;;4.30;1.60;;;;;;;;;;5013209;28;20478;-70
2022/07/16 08:54:03;;;;;;;4.10;0.90;;;;;;;;;;5020067;28;20450;-70
2022/07/16 08:56:38;;;;;;;11.40;1.50;;;;;;;;;;5032359;28;20486;-69
2022/07/16 08:59:24;;;;;;;8.73;2.00;;;;;;;;;;5029399;28;20531;-70
2022/07/16 09:01:53;;;;;;;2.97;1.17;;;;;;;;;;5011772;28;20443;-69
2022/07/16 09:04:26;;;;;;;5.97;1.27;;;;;;;;;;5012439;28;20554;-69
2022/07/16 09:06:55;;;;;;;4.80;1.10;;;;;;;;;;5011801;28;20439;-69
2022/07/16 09:09:23;;;;;;;5.20;1.67;;;;;;;;;;5012531;28;20455;-69
2022/07/16 09:12:01;;;;;;;3.00;0.97;;;;;;;;;;5013030;28;20509;-69
2022/07/16 09:14:33;;;;;;;3.37;1.27;;;;;;;;;;5025589;28;20462;-70
2022/07/16 09:17:05;;;;;;;3.77;1.07;;;;;;;;;;5013027;28;20513;-70
2022/07/16 09:20:03;;;;;;;3.60;0.80;;;;;;;;;;5037855;28;20552;-69
2022/07/16 09:22:34;;;;;;;6.40;1.00;;;;;;;;;;5020694;28;20463;-69
2022/07/16 09:25:06;;;;;;;3.97;1.20;;;;;;;;;;5025100;28;20466;-70
2022/07/16 09:27:52;;;;;;;3.70;1.20;;;;;;;;;;5022535;28;20974;-70
2022/07/16 09:30:34;;;;;;;5.20;0.90;;;;;;;;;;5032165;28;20449;-70
2022/07/16 09:33:14;;;;;;;3.83;1.17;;;;;;;;;;5019581;28;20900;-70
2022/07/16 09:35:42;;;;;;;2.70;0.90;;;;;;;;;;5011080;28;20463;-70
2022/07/16 09:38:14;;;;;;;3.30;0.93;;;;;;;;;;5027342;28;20533;-70
2022/07/16 09:40:48;;;;;;;3.37;1.03;;;;;;;;;;5025419;28;20458;-70
2022/07/16 09:43:32;;;;;;;4.33;1.67;;;;;;;;;;5019386;28;20461;-70
2022/07/16 09:46:05;;;;;;;5.67;0.80;;;;;;;;;;5029757;28;20477;-70
2022/07/16 09:48:35;;;;;;;3.70;0.83;;;;;;;;;;5023762;28;20890;-70
2022/07/16 09:51:33;;;;;;;1.93;0.80;;;;;;;;;;5026608;28;20581;-69
2022/07/16 09:54:31;;;;;;;5.27;1.00;;;;;;;;;;5015918;28;20772;-70
2022/07/16 09:57:11;;;;;;;3.13;1.10;;;;;;;;;;5014696;28;20462;-69
2022/07/16 09:59:47;;;;;;;4.00;0.73;;;;;;;;;;5017499;28;20526;-70
2022/07/16 10:02:21;;;;;;;4.13;1.00;;;;;;;;;;5016345;28;20454;-70
2022/07/16 10:04:49;;;;;;;2.17;0.90;;;;;;;;;;5020196;28;20470;-69
2022/07/16 10:07:20;;;;;;;2.37;0.70;;;;;;;;;;5030466;28;20735;-69
2022/07/16 10:09:51;;;;;;;4.60;1.03;;;;;;;;;;5034996;28;20450;-69
2022/07/16 10:12:24;;;;;;;1.97;0.70;;;;;;;;;;5028365;28;20495;-70
2022/07/16 10:14:56;;;;;;;7.20;1.00;;;;;;;;;;5014402;28;20463;-70
2022/07/16 10:17:34;;;;;;;8.93;1.10;;;;;;;;;;5020058;28;21098;-70
2022/07/16 10:20:12;;;;;;;4.57;0.90;;;;;;;;;;5016702;28;20446;-70
2022/07/16 10:22:41;;;;;;;2.33;0.80;;;;;;;;;;5018887;28;20455;-69
2022/07/16 10:25:16;;;;;;;7.33;1.27;;;;;;;;;;5022960;28;20446;-71
2022/07/16 10:27:47;;;;;;;4.80;0.97;;;;;;;;;;5018183;28;20474;-69
2022/07/16 10:30:29;;;;;;;3.80;1.00;;;;;;;;;;5016553;28;20447;-70
2022/07/16 10:33:18;;;;;;;4.03;1.43;;;;;;;;;;5015629;28;20532;-69
2022/07/16 10:36:07;;;;;;;7.40;1.60;;;;;;;;;;5008717;28;20466;-70
2022/07/16 10:38:35;;;;;;;4.20;1.13;;;;;;;;;;5016910;28;20473;-70
2022/07/16 10:41:07;;;;;;;4.83;1.60;;;;;;;;;;5018804;28;20482;-69
2022/07/16 10:43:35;;;;;;;6.03;0.90;;;;;;;;;;5015467;28;20489;-69
2022/07/16 10:46:12;;;;;;;4.70;0.87;;;;;;;;;;5020576;28;20451;-71
2022/07/16 10:48:58;;;;;;;1.97;0.70;;;;;;;;;;5012100;28;20458;-71
2022/07/16 10:51:27;;;;;;;3.73;1.10;;;;;;;;;;5012028;28;20497;-69
2022/07/16 10:54:24;;;;;;;2.93;0.80;;;;;;;;;;5028337;28;20494;-70
2022/07/16 10:56:52;;;;;;;4.83;1.20;;;;;;;;;;4938195;28;20466;-70
2022/07/16 10:59:21;;;;;;;5.00;1.43;;;;;;;;;;4947084;28;20775;-69
2022/07/16 11:02:04;;;;;;;3.30;1.10;;;;;;;;;;5011966;28;20566;-69
2022/07/16 11:04:37;;;;;;;2.90;1.17;;;;;;;;;;5033018;28;21030;-69
2022/07/16 11:07:10;;;;;;;3.10;0.90;;;;;;;;;;5015668;28;20461;-69
2022/07/16 11:09:39;;;;;;;5.80;1.33;;;;;;;;;;5022805;28;20455;-69
2022/07/16 11:12:09;;;;;;;3.30;1.10;;;;;;;;;;5015700;28;20505;-69
2022/07/16 11:14:40;;;;;;;3.80;0.90;;;;;;;;;;5017374;28;20464;-69
2022/07/16 11:17:15;;;;;;;6.73;2.80;;;;;;;;;;5024902;28;20541;-70
2022/07/16 11:19:52;;;;;;;5.80;1.00;;;;;;;;;;5017389;28;20472;-70
2022/07/16 11:22:26;;;;;;;3.20;0.80;;;;;;;;;;5013243;28;20741;-70
2022/07/16 11:24:59;;;;;;;4.17;1.10;;;;;;;;;;5016299;28;20464;-70
2022/07/16 11:27:41;;;;;;;6.77;1.07;;;;;;;;;;5013197;28;20502;-70
2022/07/16 11:30:11;;;;;;;4.67;1.27;;;;;;;;;;5020073;28;20470;-70
2022/07/16 11:32:45;;;;;;;3.40;1.27;;;;;;;;;;5012299;28;20921;-70
2022/07/16 11:35:18;;;;;;;2.87;0.80;;;;;;;;;;5011022;28;20733;-70
2022/07/16 11:37:53;;;;;;;5.10;1.30;;;;;;;;;;5014397;28;20505;-70
2022/07/16 11:43:22;;;;;;;3.73;1.57;;;;;;;;;;5020798;28;20454;-70
2022/07/16 11:45:55;;;;;;;4.90;1.13;;;;;;;;;;5014037;28;20910;-68
2022/07/16 11:48:44;;;;;;;5.63;1.20;;;;;;;;;;5016339;28;21060;-70
2022/07/16 11:51:25;;;;;;;5.37;1.20;;;;;;;;;;5012324;28;21162;-71
2022/07/16 11:53:53;;;;;;;6.43;1.03;;;;;;;;;;5019319;28;20447;-70
2022/07/16 11:56:44;;;;;;;5.23;1.10;;;;;;;;;;5029801;28;20474;-70
2022/07/16 11:59:22;;;;;;;3.50;0.90;;;;;;;;;;5029384;28;20949;-70
2022/07/16 12:02:04;;;;;;;2.57;1.00;;;;;;;;;;5014276;28;20467;-71
2022/07/16 12:04:42;;;;;;;3.00;0.93;;;;;;;;;;5012175;28;20451;-70
2022/07/16 12:07:17;;;;;;;4.20;1.40;;;;;;;;;;5015048;28;20537;-69
2022/07/16 12:09:50;;;;;;;7.53;1.70;;;;;;;;;;5019985;28;20467;-71
2022/07/16 12:12:29;;;;;;;3.33;0.90;;;;;;;;;;5015719;28;20478;-70
2022/07/16 12:15:01;;;;;;;3.37;1.10;;;;;;;;;;5029474;28;20454;-70
2022/07/16 12:17:32;;;;;;;3.93;1.13;;;;;;;;;;5025353;28;20459;-70
2022/07/16 12:20:19;;;;;;;4.03;1.40;;;;;;;;;;5026841;28;20485;-71
2022/07/16 12:22:53;;;;;;;2.40;0.80;;;;;;;;;;5016111;28;20876;-71
2022/07/16 12:25:51;;;;;;;2.53;0.80;;;;;;;;;;5016721;28;20506;-72
2022/07/16 12:28:30;;;;;;;3.60;1.23;;;;;;;;;;5022769;28;20747;-71
2022/07/16 12:31:12;;;;;;;3.03;0.90;;;;;;;;;;5032027;28;20458;-71
2022/07/16 12:33:42;;;;;;;2.23;0.60;;;;;;;;;;5015172;28;20459;-71
2022/07/16 12:36:20;;;;;;;2.67;0.90;;;;;;;;;;5012274;28;20451;-71
2022/07/16 12:38:55;;;;;;;5.23;1.00;;;;;;;;;;5026176;28;20465;-69
2022/07/16 12:41:29;;;;;;;4.63;0.90;;;;;;;;;;5013050;28;20462;-71
2022/07/16 12:44:00;;;;;;;3.67;0.90;;;;;;;;;;5023479;28;20562;-70
2022/07/16 12:46:31;;;;;;;3.40;1.40;;;;;;;;;;5027672;28;20875;-71
2022/07/16 12:49:19;;;;;;;4.93;1.27;;;;;;;;;;5015580;28;20500;-70
2022/07/16 12:51:51;;;;;;;3.80;0.90;;;;;;;;;;5011465;28;20545;-72
2022/07/16 12:58:47;;;;;;;3.00;0.80;;;;;;;;;;5030573;28;20557;-71
2022/07/16 13:00:15;;;;;;;3.47;0.87;;;;;;;;;;5032049;28;20445;-72
2022/07/16 13:02:43;;;;;;;3.97;1.10;;;;;;;;;;5031266;28;20870;-71
2022/07/16 13:05:14;;;;;;;4.77;2.30;;;;;;;;;;5031715;28;20473;-70
2022/07/16 13:07:45;;;;;;;3.20;1.07;;;;;;;;;;5032724;28;20525;-71
2022/07/16 13:10:28;;;;;;;2.93;1.00;;;;;;;;;;5018719;28;20812;-72
2022/07/16 13:12:56;;;;;;;3.93;1.00;;;;;;;;;;5009344;28;20515;-71
2022/07/16 13:15:24;;;;;;;2.90;0.90;;;;;;;;;;5013424;28;20751;-70
2022/07/16 13:18:06;;;;;;;5.43;0.90;;;;;;;;;;5028441;28;20859;-72
2022/07/16 13:20:49;;;;;;;3.73;1.43;;;;;;;;;;5015196;28;20454;-71
2022/07/16 13:23:20;;;;;;;3.53;1.20;;;;;;;;;;5020639;28;20440;-72
2022/07/16 13:25:58;;;;;;;3.40;1.00;;;;;;;;;;5020355;28;20451;-72
2022/07/16 13:28:38;;;;;;;4.17;1.03;;;;;;;;;;5011870;28;20478;-72
2022/07/16 13:31:09;;;;;;;3.00;1.10;;;;;;;;;;5010297;28;20730;-71
2022/07/16 13:33:55;;;;;;;4.63;1.00;;;;;;;;;;5016332;28;20479;-71
2022/07/16 13:36:25;;;;;;;4.63;1.00;;;;;;;;;;5011099;28;20447;-71
2022/07/16 13:38:53;;;;;;;3.93;0.90;;;;;;;;;;5016915;28;20494;-70
2022/07/16 13:41:47;;;;;;;3.30;0.90;;;;;;;;;;5019896;28;21044;-71
2022/07/16 13:44:41;;;;;;;8.23;1.10;;;;;;;;;;5012751;28;20463;-72
2022/07/16 13:47:26;;;;;;;1.97;0.80;;;;;;;;;;5020664;28;20743;-72
2022/07/16 13:50:01;;;;;;;4.77;1.67;;;;;;;;;;5027470;28;20465;-72
2022/07/16 13:52:37;;;;;;;3.47;0.87;;;;;;;;;;5023150;28;20579;-70
2022/07/16 13:55:09;;;;;;;5.03;0.90;;;;;;;;;;5027072;28;20493;-71
2022/07/16 14:00:25;;;;;;;3.23;0.90;;;;;;;;;;5030300;28;20499;-72
2022/07/16 14:03:00;;;;;;;7.07;1.83;;;;;;;;;;5023165;28;20509;-71
2022/07/16 14:05:33;;;;;;;3.33;1.00;;;;;;;;;;5021996;28;20743;-71
2022/07/16 14:08:04;;;;;;;4.33;1.30;;;;;;;;;;5029888;28;20537;-70
2022/07/16 14:10:42;;;;;;;;;;;;;;;;;;;;;
2022/07/16 14:13:26;;;;;;;6.93;1.30;;;;;;;;;;5023616;28;20478;-71
2022/07/16 14:16:00;;;;;;;5.87;1.80;;;;;;;;;;5016215;28;20488;-72
2022/07/16 14:18:38;;;;;;;4.10;0.80;;;;;;;;;;5011604;28;20459;-71
2022/07/16 14:21:07;;;;;;;3.00;1.10;;;;;;;;;;5017400;28;20953;-71
2022/07/16 14:23:40;;;;;;;4.47;1.10;;;;;;;;;;5023843;28;20502;-71
2022/07/16 14:26:11;;;;;;;3.40;0.90;;;;;;;;;;5028421;28;20453;-72
2022/07/16 14:28:47;;;;;;;2.83;1.10;;;;;;;;;;5021500;28;20491;-72
2022/07/16 14:31:24;;;;;;;4.17;1.00;;;;;;;;;;5030113;28;20514;-72
2022/07/16 14:34:00;;;;;;;2.43;1.53;;;;;;;;;;5014497;28;20483;-72
2022/07/16 14:36:33;;;;;;;4.97;1.20;;;;;;;;;;5013474;28;20462;-74
2022/07/16 14:39:09;;;;;;;3.67;0.90;;;;;;;;;;5014375;28;20459;-72
2022/07/16 14:41:44;;;;;;;3.20;0.90;;;;;;;;;;5013676;28;20704;-71
2022/07/16 14:44:14;;;;;;;2.70;1.30;;;;;;;;;;5014952;28;20451;-72
2022/07/16 14:46:47;;;;;;;1.90;0.63;;;;;;;;;;5015742;28;20536;-71
2022/07/16 14:49:21;;;;;;;5.00;1.00;;;;;;;;;;5022421;28;20445;-71
2022/07/16 14:51:53;;;;;;;3.30;0.90;;;;;;;;;;5015471;28;20565;-72
2022/07/16 14:54:31;;;;;;;3.70;1.67;;;;;;;;;;5030738;28;20474;-71
2022/07/16 14:56:59;;;;;;;8.33;1.97;;;;;;;;;;5034559;28;20438;-71
2022/07/16 14:59:29;;;;;;;3.00;0.80;;;;;;;;;;5017068;28;20890;-70
2022/07/16 15:02:04;;;;;;;5.47;2.07;;;;;;;;;;5026045;28;20470;-70
2022/07/16 15:04:40;;;;;;;3.87;0.90;;;;;;;;;;5028135;28;20455;-70
2022/07/16 15:07:14;;;;;;;3.77;1.13;;;;;;;;;;5022555;28;20557;-71
2022/07/16 15:09:42;;;;;;;1.93;0.70;;;;;;;;;;5019943;28;20500;-71
2022/07/16 15:12:11;;;;;;;5.67;1.00;;;;;;;;;;5023181;28;20578;-72
2022/07/16 15:14:41;;;;;;;1.90;0.80;;;;;;;;;;5013573;28;20451;-71
2022/07/16 15:17:24;;;;;;;1.87;0.70;;;;;;;;;;5030914;28;20457;-72
2022/07/16 15:19:52;;;;;;;2.83;1.10;;;;;;;;;;5018608;28;20527;-71
2022/07/16 15:22:44;;;;;;;2.83;0.90;;;;;;;;;;5013357;28;20483;-71
2022/07/16 15:25:27;;;;;;;3.20;0.90;;;;;;;;;;5013459;28;20631;-71
2022/07/16 15:27:57;;;;;;;3.50;0.97;;;;;;;;;;5013667;28;20467;-71
2022/07/16 15:30:28;;;;;;;3.30;1.20;;;;;;;;;;5015431;28;20448;-71
2022/07/16 15:33:37;;;;;;;5.07;1.40;;;;;;;;;;5022793;28;20487;-72
2022/07/16 15:35:49;;;;;;;5.57;1.20;;;;;;;;;;5023160;28;20778;-71